createdAt,value
2019-05-26T00:02:18.660Z,24.07
2019-05-26T00:04:49.221Z,22.05
2019-05-26T00:07:30.238Z,22.77
2019-05-26T00:09:51.737Z,22.25
2019-05-26T00:12:22.180Z,22.23
2019-05-26T00:14:52.566Z,21.53
2019-05-26T00:17:22.952Z,21.27
2019-05-26T00:19:54.469Z,22.22
2019-05-26T00:22:24.850Z,20.80
2019-05-26T00:24:55.296Z,21.13
2019-05-26T00:27:25.670Z,19.33
2019-05-26T00:29:56.143Z,19.90
2019-05-26T00:32:26.574Z,20.13
2019-05-26T00:34:56.941Z,20.40
2019-05-26T00:37:28.538Z,19.92
2019-05-26T00:39:58.938Z,20.77
2019-05-26T00:42:29.330Z,14.73
2019-05-26T00:44:59.701Z,19.35
2019-05-26T00:47:30.104Z,20.23
2019-05-26T00:50:00.518Z,19.43
2019-05-26T00:52:30.990Z,20.10
2019-05-26T00:55:01.622Z,17.80
2019-05-26T00:57:32.599Z,18.87
2019-05-26T01:00:04.873Z,18.60
2019-05-26T01:02:35.261Z,18.37
2019-05-26T01:05:07.586Z,18.00
2019-05-26T01:07:38.930Z,18.05
2019-05-26T01:12:39.559Z,17.00
2019-05-26T01:15:11.631Z,16.60
2019-05-26T01:17:42.079Z,15.45
2019-05-26T01:20:12.606Z,21.67
2019-05-26T01:22:43.028Z,22.80
2019-05-26T01:25:13.540Z,15.78
2019-05-26T01:27:43.952Z,11.38
2019-05-26T01:30:14.945Z,16.10
2019-05-26T01:32:45.354Z,16.07
2019-05-26T01:35:15.921Z,18.30
2019-05-26T01:37:46.857Z,16.80
2019-05-26T01:40:21.972Z,16.97
2019-05-26T01:42:52.393Z,16.62
2019-05-26T01:45:22.798Z,17.40
2019-05-26T01:47:53.176Z,17.82
2019-05-26T01:50:23.588Z,13.13
2019-05-26T01:52:53.965Z,18.03
2019-05-26T01:55:24.373Z,17.17
2019-05-26T01:57:54.779Z,16.03
2019-05-26T02:00:25.665Z,16.80
2019-05-26T02:02:56.306Z,16.48
2019-05-26T02:05:26.701Z,16.95
2019-05-26T02:07:57.154Z,16.62
2019-05-26T02:10:27.549Z,16.80
2019-05-26T02:12:58.093Z,11.10
2019-05-26T02:15:30.154Z,17.27
2019-05-26T02:18:00.775Z,15.45
2019-05-26T02:20:31.173Z,15.90
2019-05-26T02:23:02.650Z,15.03
2019-05-26T02:25:33.083Z,20.53
2019-05-26T02:28:03.486Z,16.55
2019-05-26T02:30:33.876Z,15.90
2019-05-26T02:33:04.353Z,16.25
2019-05-26T02:35:34.737Z,14.63
2019-05-26T02:38:05.437Z,13.98
2019-05-26T02:40:35.986Z,13.85
2019-05-26T02:43:06.395Z,12.63
2019-05-26T02:45:36.963Z,13.13
2019-05-26T02:48:07.597Z,12.30
2019-05-26T02:50:38.005Z,12.35
2019-05-26T02:53:08.484Z,13.13
2019-05-26T02:55:38.878Z,13.60
2019-05-26T02:58:09.274Z,12.40
2019-05-26T03:00:45.615Z,11.43
2019-05-26T03:03:17.052Z,11.08
2019-05-26T03:05:47.601Z,10.60
2019-05-26T03:08:18.260Z,12.47
2019-05-26T03:10:51.334Z,12.03
2019-05-26T03:13:21.863Z,10.58
2019-05-26T03:15:54.113Z,10.57
2019-05-26T03:18:24.516Z,10.55
2019-05-26T03:20:57.502Z,11.10
2019-05-26T03:23:31.492Z,10.13
2019-05-26T03:26:02.158Z,10.08
2019-05-26T03:28:32.542Z,9.93
2019-05-26T03:31:03.032Z,10.67
2019-05-26T03:33:33.459Z,9.88
2019-05-26T03:36:03.894Z,10.20
2019-05-26T03:38:34.261Z,14.97
2019-05-26T03:41:05.091Z,8.53
2019-05-26T03:43:35.504Z,9.20
2019-05-26T03:46:18.042Z,8.83
2019-05-26T03:48:50.136Z,8.63
2019-05-26T03:51:20.653Z,8.45
2019-05-26T03:53:51.134Z,7.73
2019-05-26T03:56:21.562Z,7.80
2019-05-26T03:58:51.998Z,7.90
2019-05-26T04:01:22.398Z,5.30
2019-05-26T04:03:52.781Z,7.27
2019-05-26T04:06:23.172Z,10.80
2019-05-26T04:08:53.543Z,8.20
2019-05-26T04:11:23.965Z,7.97
2019-05-26T04:13:54.361Z,7.70
2019-05-26T04:16:24.748Z,6.90
2019-05-26T04:18:55.176Z,7.57
2019-05-26T04:21:25.540Z,7.97
2019-05-26T04:23:55.933Z,6.97
2019-05-26T04:26:26.318Z,6.80
2019-05-26T04:28:56.719Z,7.17
2019-05-26T04:31:27.159Z,7.03
2019-05-26T04:33:57.551Z,7.58
2019-05-26T04:36:28.040Z,6.43
2019-05-26T04:38:58.419Z,6.60
2019-05-26T04:41:28.819Z,6.77
2019-05-26T04:43:59.211Z,6.90
2019-05-26T04:46:29.702Z,6.35
2019-05-26T04:49:00.089Z,6.63
2019-05-26T04:51:30.524Z,6.90
2019-05-26T04:54:00.966Z,6.28
2019-05-26T04:56:31.402Z,49.97
2019-05-26T04:59:02.895Z,6.00
2019-05-26T05:01:33.323Z,6.83
2019-05-26T05:04:03.787Z,5.80
2019-05-26T05:06:34.197Z,5.83
2019-05-26T05:09:07.252Z,6.17
2019-05-26T05:11:37.666Z,6.10
2019-05-26T05:14:08.054Z,5.90
2019-05-26T05:16:38.476Z,5.87
2019-05-26T05:19:08.857Z,5.70
2019-05-26T05:21:39.277Z,5.60
2019-05-26T05:24:09.673Z,5.63
2019-05-26T05:26:40.085Z,4.93
2019-05-26T05:29:11.561Z,5.25
2019-05-26T05:31:41.954Z,5.13
2019-05-26T05:34:12.372Z,5.30
2019-05-26T05:36:42.754Z,5.47
2019-05-26T05:39:13.222Z,4.90
2019-05-26T05:41:43.635Z,5.27
2019-05-26T05:44:14.076Z,4.73
2019-05-26T05:46:44.453Z,4.80
2019-05-26T05:49:14.855Z,5.20
2019-05-26T05:51:45.297Z,4.87
2019-05-26T05:54:15.696Z,5.05
2019-05-26T05:56:46.069Z,4.43
2019-05-26T05:59:16.540Z,4.73
2019-05-26T06:01:46.914Z,4.47
2019-05-26T06:04:17.336Z,3.70
2019-05-26T06:06:47.809Z,4.57
2019-05-26T06:09:18.248Z,4.08
2019-05-26T06:11:53.081Z,4.00
2019-05-26T06:14:20.889Z,3.90
2019-05-26T06:16:51.264Z,3.90
2019-05-26T06:19:21.647Z,4.13
2019-05-26T06:21:52.082Z,4.20
2019-05-26T06:24:22.451Z,4.22
2019-05-26T06:26:52.842Z,4.73
2019-05-26T06:29:23.280Z,4.93
2019-05-26T06:31:53.746Z,4.80
2019-05-26T06:34:24.164Z,4.12
2019-05-26T06:36:55.137Z,3.63
2019-05-26T06:39:26.518Z,3.70
2019-05-26T06:41:56.935Z,3.70
2019-05-26T06:44:27.338Z,3.90
2019-05-26T06:46:57.738Z,3.60
2019-05-26T06:49:28.319Z,3.52
2019-05-26T06:51:58.708Z,3.67
2019-05-26T06:54:29.085Z,3.40
2019-05-26T06:56:59.455Z,3.50
2019-05-26T06:59:29.871Z,3.40
2019-05-26T07:02:00.274Z,5.13
2019-05-26T07:04:30.665Z,4.12
2019-05-26T07:07:01.339Z,3.40
2019-05-26T07:09:32.894Z,3.27
2019-05-26T07:12:03.317Z,3.70
2019-05-26T07:14:33.730Z,3.10
2019-05-26T07:17:04.189Z,3.50
2019-05-26T07:19:34.763Z,3.45
2019-05-26T07:22:05.728Z,3.30
2019-05-26T07:24:36.128Z,3.50
2019-05-26T07:27:06.756Z,3.80
2019-05-26T07:29:37.157Z,2.98
2019-05-26T07:32:07.524Z,3.47
2019-05-26T07:34:37.942Z,3.60
2019-05-26T07:37:08.305Z,3.30
2019-05-26T07:39:38.700Z,3.80
2019-05-26T07:42:11.005Z,3.47
2019-05-26T07:44:42.274Z,3.58
2019-05-26T07:47:12.664Z,3.00
2019-05-26T07:49:43.088Z,2.80
2019-05-26T07:52:13.494Z,2.90
2019-05-26T07:54:43.877Z,2.85
2019-05-26T07:57:14.309Z,3.10
2019-05-26T07:59:44.863Z,2.60
2019-05-26T08:02:15.258Z,3.00
2019-05-26T08:04:45.657Z,2.55
2019-05-26T08:07:16.064Z,2.70
2019-05-26T08:09:46.495Z,2.47
2019-05-26T08:12:25.937Z,2.40
2019-05-26T08:14:49.078Z,2.50
2019-05-26T08:17:19.615Z,2.72
2019-05-26T08:19:50.042Z,2.80
2019-05-26T08:22:21.511Z,2.50
2019-05-26T08:24:51.870Z,3.20
2019-05-26T08:27:22.336Z,2.97
2019-05-26T08:29:52.721Z,14.58
2019-05-26T08:32:23.130Z,2.80
2019-05-26T08:34:53.718Z,2.60
2019-05-26T08:37:24.095Z,2.42
2019-05-26T08:39:56.177Z,2.33
2019-05-26T08:42:31.987Z,2.80
2019-05-26T08:44:58.690Z,2.55
2019-05-26T08:47:29.130Z,2.80
2019-05-26T08:50:00.597Z,2.75
2019-05-26T08:52:31.066Z,2.70
2019-05-26T08:55:01.597Z,2.80
2019-05-26T08:57:31.963Z,2.75
2019-05-26T09:00:02.466Z,2.72
2019-05-26T09:02:32.891Z,3.10
2019-05-26T09:05:04.673Z,2.80
2019-05-26T09:07:35.047Z,2.62
2019-05-26T09:10:07.358Z,2.53
2019-05-26T09:12:37.728Z,2.77
2019-05-26T09:15:10.143Z,2.17
2019-05-26T09:17:40.832Z,2.50
2019-05-26T09:20:12.277Z,2.47
2019-05-26T09:22:42.702Z,2.77
2019-05-26T09:25:14.149Z,49.65
2019-05-26T09:27:44.538Z,2.98
2019-05-26T09:30:17.569Z,2.75
2019-05-26T09:32:47.973Z,2.87
2019-05-26T09:35:18.699Z,2.45
2019-05-26T09:37:49.146Z,3.10
2019-05-26T09:40:20.540Z,2.62
2019-05-26T09:42:50.924Z,2.30
2019-05-26T09:45:21.654Z,2.65
2019-05-26T09:47:52.323Z,2.50
2019-05-26T09:50:22.869Z,2.42
2019-05-26T09:52:53.255Z,2.37
2019-05-26T09:55:24.137Z,2.85
2019-05-26T09:57:54.501Z,2.80
2019-05-26T10:00:26.160Z,2.62
2019-05-26T10:02:56.927Z,2.77
2019-05-26T10:05:27.321Z,3.30
2019-05-26T10:07:57.676Z,3.25
2019-05-26T10:10:28.103Z,2.70
2019-05-26T10:12:58.477Z,2.58
2019-05-26T10:15:29.955Z,2.92
2019-05-26T10:18:00.384Z,2.77
2019-05-26T10:20:30.790Z,3.10
2019-05-26T10:23:01.177Z,2.98
2019-05-26T10:25:31.586Z,2.90
2019-05-26T10:28:01.957Z,3.45
2019-05-26T10:30:32.455Z,3.70
2019-05-26T10:33:03.213Z,3.50
2019-05-26T10:35:33.600Z,3.10
2019-05-26T10:38:04.116Z,3.30
2019-05-26T10:40:34.525Z,3.12
2019-05-26T10:43:04.967Z,3.30
2019-05-26T10:45:35.374Z,4.00
2019-05-26T10:48:05.843Z,3.62
2019-05-26T10:50:36.248Z,3.27
2019-05-26T10:53:06.650Z,3.80
2019-05-26T10:55:37.041Z,4.20
2019-05-26T10:58:08.156Z,4.40
2019-05-26T11:03:08.232Z,4.50
2019-05-26T11:05:38.612Z,4.12
2019-05-26T11:08:09.015Z,4.22
2019-05-26T11:10:39.483Z,4.47
2019-05-26T11:13:09.897Z,3.55
2019-05-26T11:15:40.295Z,6.12
2019-05-26T11:18:10.757Z,3.55
2019-05-26T11:20:42.050Z,3.67
2019-05-26T11:23:12.442Z,3.40
2019-05-26T11:25:44.161Z,3.10
2019-05-26T11:28:14.566Z,2.70
2019-05-26T11:30:45.809Z,3.25
2019-05-26T11:33:16.232Z,4.33
2019-05-26T11:35:46.658Z,2.87
2019-05-26T11:38:17.022Z,2.30
2019-05-26T11:40:47.813Z,2.60
2019-05-26T11:43:18.390Z,2.72
2019-05-26T11:45:48.785Z,3.02
2019-05-26T11:48:19.152Z,3.00
2019-05-26T11:50:49.541Z,2.77
2019-05-26T11:53:19.978Z,3.15
2019-05-26T11:55:50.414Z,2.80
2019-05-26T11:58:20.872Z,11.93
2019-05-26T12:00:51.607Z,3.60
2019-05-26T12:03:21.992Z,3.10
2019-05-26T12:05:52.443Z,2.87
2019-05-26T12:08:22.826Z,2.70
2019-05-26T12:10:53.194Z,2.80
2019-05-26T12:13:23.612Z,2.65
2019-05-26T12:15:54.085Z,2.47
2019-05-26T12:18:24.514Z,2.77
2019-05-26T12:20:54.917Z,4.55
2019-05-26T12:23:25.305Z,4.08
2019-05-26T12:25:55.737Z,3.92
2019-05-26T12:28:26.275Z,3.00
2019-05-26T12:30:56.780Z,16.95
2019-05-26T12:33:28.255Z,3.95
2019-05-26T12:35:58.649Z,2.70
2019-05-26T12:38:29.087Z,2.70
2019-05-26T12:40:59.501Z,2.70
2019-05-26T12:43:29.890Z,2.67
2019-05-26T12:46:00.286Z,2.37
2019-05-26T12:48:31.929Z,2.65
2019-05-26T12:51:03.303Z,2.47
2019-05-26T12:53:33.658Z,2.30
2019-05-26T12:56:04.144Z,2.50
2019-05-26T12:58:34.512Z,2.20
2019-05-26T13:01:06.326Z,2.10
2019-05-26T13:03:36.684Z,2.52
2019-05-26T13:06:07.829Z,2.50
2019-05-26T13:08:38.226Z,3.12
2019-05-26T13:11:08.623Z,5.50
2019-05-26T13:13:39.041Z,2.33
2019-05-26T13:16:09.424Z,1.80
2019-05-26T13:18:39.815Z,1.87
2019-05-26T13:21:10.217Z,2.10
2019-05-26T13:23:40.609Z,2.17
2019-05-26T13:26:13.684Z,2.10
2019-05-26T13:28:44.262Z,2.25
2019-05-26T13:31:14.685Z,2.80
2019-05-26T13:33:45.050Z,2.60
2019-05-26T13:36:15.494Z,2.33
2019-05-26T13:38:45.892Z,2.50
2019-05-26T13:41:16.232Z,2.25
2019-05-26T13:43:46.702Z,1.97
2019-05-26T13:46:17.088Z,2.20
2019-05-26T13:48:47.499Z,2.40
2019-05-26T13:51:17.941Z,1.98
2019-05-26T13:53:48.361Z,1.82
2019-05-26T13:56:18.797Z,1.92
2019-05-26T13:58:50.252Z,2.22
2019-05-26T14:01:20.642Z,2.27
2019-05-26T14:03:51.026Z,2.63
2019-05-26T14:06:21.385Z,1.93
2019-05-26T14:08:51.795Z,1.95
2019-05-26T14:11:22.212Z,2.00
2019-05-26T14:13:52.797Z,2.60
2019-05-26T14:16:24.706Z,26.93
2019-05-26T14:18:56.372Z,2.90
2019-05-26T14:21:26.739Z,3.42
2019-05-26T14:23:57.157Z,2.60
2019-05-26T14:26:27.628Z,2.20
2019-05-26T14:28:58.036Z,6.22
2019-05-26T14:31:28.452Z,3.42
2019-05-26T14:33:58.817Z,2.30
2019-05-26T14:36:29.235Z,2.87
2019-05-26T14:38:59.657Z,5.90
2019-05-26T14:41:30.040Z,4.90
2019-05-26T14:44:00.444Z,3.30
2019-05-26T14:46:30.858Z,2.60
2019-05-26T14:49:01.269Z,1.92
2019-05-26T14:51:31.701Z,1.98
2019-05-26T14:54:02.066Z,1.70
2019-05-26T14:56:32.468Z,1.93
2019-05-26T14:59:02.850Z,1.80
2019-05-26T15:01:33.274Z,1.60
2019-05-26T15:04:03.860Z,1.50
2019-05-26T15:06:34.482Z,1.70
2019-05-26T15:09:23.944Z,1.87
2019-05-26T15:11:40.017Z,1.45
2019-05-26T15:14:10.444Z,1.77
2019-05-26T15:16:40.842Z,1.20
2019-05-26T15:19:11.221Z,1.70
2019-05-26T15:21:41.614Z,1.70
2019-05-26T15:24:11.973Z,1.92
2019-05-26T15:26:42.413Z,1.67
2019-05-26T15:29:12.814Z,1.55
2019-05-26T15:31:43.229Z,1.83
2019-05-26T15:34:13.614Z,2.05
2019-05-26T15:36:44.027Z,1.52
2019-05-26T15:39:14.503Z,2.45
2019-05-26T15:41:44.984Z,2.87
2019-05-26T15:44:15.350Z,2.42
2019-05-26T15:46:45.760Z,1.73
2019-05-26T15:49:16.166Z,2.08
2019-05-26T15:51:46.633Z,2.40
2019-05-26T15:54:17.236Z,1.85
2019-05-26T15:56:47.647Z,1.98
2019-05-26T15:59:18.042Z,1.82
2019-05-26T16:01:48.537Z,3.90
2019-05-26T16:04:18.910Z,2.02
2019-05-26T16:06:49.326Z,11.67
2019-05-26T16:09:19.702Z,6.65
2019-05-26T16:11:50.138Z,3.03
2019-05-26T16:14:20.529Z,2.90
2019-05-26T16:16:51.550Z,2.30
2019-05-26T16:19:22.069Z,4.35
2019-05-26T16:21:53.989Z,3.20
2019-05-26T16:24:24.421Z,3.90
2019-05-26T16:26:54.787Z,2.47
2019-05-26T16:29:25.215Z,10.38
2019-05-26T16:31:55.576Z,2.12
2019-05-26T16:34:26.011Z,2.10
2019-05-26T16:36:56.368Z,2.00
2019-05-26T16:39:36.685Z,2.22
2019-05-26T16:41:58.850Z,1.60
2019-05-26T16:44:29.259Z,2.27
2019-05-26T16:46:59.616Z,2.25
2019-05-26T16:49:30.054Z,20.60
2019-05-26T16:52:00.440Z,2.75
2019-05-26T16:54:30.883Z,2.47
2019-05-26T16:57:01.326Z,2.65
2019-05-26T16:59:31.885Z,3.12
2019-05-26T17:02:02.251Z,2.80
2019-05-26T17:04:32.650Z,2.63
2019-05-26T17:07:03.080Z,2.50
2019-05-26T17:09:33.471Z,2.77
2019-05-26T17:12:04.221Z,3.42
2019-05-26T17:14:34.655Z,2.60
2019-05-26T17:17:14.297Z,2.15
2019-05-26T17:19:37.375Z,2.35
2019-05-26T17:22:07.773Z,2.72
2019-05-26T17:24:38.134Z,9.60
2019-05-26T17:27:08.562Z,2.17
2019-05-26T17:29:39.017Z,3.20
2019-05-26T17:32:09.503Z,2.60
2019-05-26T17:34:39.923Z,3.17
2019-05-26T17:37:10.335Z,3.80
2019-05-26T17:39:40.695Z,4.40
2019-05-26T17:42:11.189Z,2.90
2019-05-26T17:44:42.725Z,5.20
2019-05-26T17:47:13.117Z,3.83
2019-05-26T17:49:43.555Z,3.37
2019-05-26T17:52:13.960Z,3.10
2019-05-26T17:54:44.598Z,2.50
2019-05-26T17:57:14.976Z,2.92
2019-05-26T17:59:45.425Z,3.00
2019-05-26T18:02:15.887Z,5.83
2019-05-26T18:04:46.379Z,5.17
2019-05-26T18:07:16.804Z,3.37
2019-05-26T18:09:47.205Z,3.00
2019-05-26T18:12:17.674Z,2.90
2019-05-26T18:14:48.073Z,2.95
2019-05-26T18:17:18.481Z,2.83
2019-05-26T18:19:49.396Z,3.30
2019-05-26T18:22:20.116Z,3.47
2019-05-26T18:24:56.251Z,7.65
2019-05-26T18:27:22.750Z,3.77
2019-05-26T18:29:54.304Z,3.20
2019-05-26T18:32:24.742Z,4.00
2019-05-26T18:34:55.155Z,7.40
2019-05-26T18:37:25.733Z,4.60
2019-05-26T18:39:56.100Z,5.50
2019-05-26T18:42:26.509Z,4.83
2019-05-26T18:44:56.877Z,3.97
2019-05-26T18:47:27.399Z,3.85
2019-05-26T18:49:57.797Z,3.55
2019-05-26T18:52:28.238Z,4.70
2019-05-26T18:54:58.780Z,4.70
2019-05-26T18:57:29.315Z,6.28
2019-05-26T18:59:59.758Z,4.20
2019-05-26T19:02:30.121Z,5.00
2019-05-26T19:05:00.516Z,4.40
2019-05-26T19:07:30.925Z,4.60
2019-05-26T19:10:01.456Z,5.10
2019-05-26T19:12:32.906Z,5.80
2019-05-26T19:15:03.674Z,5.57
2019-05-26T19:17:34.080Z,5.95
2019-05-26T19:20:15.540Z,5.17
2019-05-26T19:22:38.881Z,4.80
2019-05-26T19:25:09.783Z,4.35
2019-05-26T19:27:40.251Z,6.05
2019-05-26T19:30:11.705Z,5.03
2019-05-26T19:32:42.113Z,4.45
2019-05-26T19:35:14.419Z,4.40
2019-05-26T19:37:44.923Z,4.65
2019-05-26T19:40:15.916Z,4.53
2019-05-26T19:42:46.309Z,4.60
2019-05-26T19:45:17.383Z,4.40
2019-05-26T19:47:47.945Z,4.08
2019-05-26T19:50:18.788Z,4.23
2019-05-26T19:52:50.084Z,4.42
2019-05-26T19:55:20.929Z,4.42
2019-05-26T19:57:51.295Z,4.77
2019-05-26T20:00:22.825Z,4.65
2019-05-26T20:02:53.429Z,5.25
2019-05-26T20:05:23.855Z,4.83
2019-05-26T20:07:54.286Z,4.17
2019-05-26T20:10:24.814Z,5.13
2019-05-26T20:12:55.237Z,4.72
2019-05-26T20:15:25.667Z,4.77
2019-05-26T20:17:56.106Z,5.33
2019-05-26T20:20:26.506Z,5.03
2019-05-26T20:22:56.989Z,4.67
2019-05-26T20:25:27.414Z,4.83
2019-05-26T20:27:57.770Z,5.20
2019-05-26T20:30:28.193Z,5.22
2019-05-26T20:32:58.640Z,5.17
2019-05-26T20:35:29.036Z,5.20
2019-05-26T20:37:59.429Z,4.93
2019-05-26T20:40:30.058Z,4.95
2019-05-26T20:43:00.502Z,5.33
2019-05-26T20:45:30.925Z,6.57
2019-05-26T20:48:01.307Z,5.87
2019-05-26T20:50:31.696Z,5.57
2019-05-26T20:53:02.181Z,6.72
2019-05-26T20:55:32.624Z,5.70
2019-05-26T20:58:03.028Z,6.23
2019-05-26T21:00:33.430Z,5.80
2019-05-26T21:03:04.045Z,5.72
2019-05-26T21:05:34.455Z,6.63
2019-05-26T21:08:04.914Z,6.13
2019-05-26T21:10:35.460Z,6.03
2019-05-26T21:13:06.974Z,6.40
2019-05-26T21:15:37.381Z,6.33
2019-05-26T21:18:07.787Z,7.80
2019-05-26T21:20:38.162Z,7.80
2019-05-26T21:23:08.615Z,6.50
2019-05-26T21:25:38.993Z,6.23
2019-05-26T21:28:09.409Z,7.70
2019-05-26T21:30:39.919Z,7.17
2019-05-26T21:33:10.504Z,7.55
2019-05-26T21:35:40.922Z,7.20
2019-05-26T21:38:11.300Z,7.80
2019-05-26T21:40:41.780Z,7.05
2019-05-26T21:43:12.193Z,6.45
2019-05-26T21:45:42.596Z,6.42
2019-05-26T21:48:12.974Z,6.93
2019-05-26T21:50:43.393Z,7.33
2019-05-26T21:53:13.931Z,7.20
2019-05-26T21:55:44.621Z,7.33
2019-05-26T21:58:15.018Z,7.90
2019-05-26T22:00:49.791Z,6.37
2019-05-26T22:03:21.833Z,6.70
2019-05-26T22:05:52.272Z,6.60
2019-05-26T22:08:22.729Z,7.33
2019-05-26T22:10:53.143Z,7.08
2019-05-26T22:13:23.504Z,7.50
2019-05-26T22:15:53.941Z,8.00
2019-05-26T22:18:24.353Z,7.27
2019-05-26T22:20:54.839Z,7.17
2019-05-26T22:23:25.242Z,7.33
2019-05-26T22:25:55.654Z,5.20
2019-05-26T22:28:26.098Z,6.70
2019-05-26T22:30:56.493Z,8.37
2019-05-26T22:33:26.934Z,7.27
2019-05-26T22:35:57.360Z,7.53
2019-05-26T22:38:27.725Z,7.40
2019-05-26T22:40:58.122Z,7.53
2019-05-26T22:43:28.528Z,7.10
2019-05-26T22:45:58.960Z,8.27
2019-05-26T22:48:29.430Z,7.40
2019-05-26T22:50:59.850Z,7.43
2019-05-26T22:53:30.205Z,7.70
2019-05-26T22:56:00.609Z,7.83
2019-05-26T22:58:30.970Z,7.77
2019-05-26T23:01:01.377Z,8.33
2019-05-26T23:03:31.741Z,8.08
2019-05-26T23:06:02.194Z,7.93
2019-05-26T23:08:32.738Z,8.00
2019-05-26T23:11:03.158Z,8.67
2019-05-26T23:13:33.561Z,8.07
2019-05-26T23:16:04.133Z,8.48
2019-05-26T23:18:34.498Z,8.48
2019-05-26T23:21:04.911Z,8.10
2019-05-26T23:23:35.268Z,7.73
2019-05-26T23:26:05.757Z,8.35
2019-05-26T23:28:36.118Z,8.30
2019-05-26T23:31:06.540Z,8.43
2019-05-26T23:36:07.563Z,9.53
2019-05-26T23:38:37.943Z,9.00
2019-05-26T23:41:08.369Z,8.83
2019-05-26T23:43:38.801Z,9.17
2019-05-26T23:46:09.272Z,9.20
2019-05-26T23:48:39.700Z,9.10
2019-05-26T23:51:10.170Z,8.93
2019-05-26T23:53:40.588Z,9.63
2019-05-26T23:56:11.009Z,9.78
2019-05-26T23:58:41.402Z,7.10
